Latest Weather Observations for Rockhampton

IDQ60801

Issued at 10:02 am EST Thursday 30 July 2015 (issued every 30 minutes, with the page automatically refreshed every 10 minutes)

About weather observations | Map of weather stations | Latest weather observations for QLD | Other Formats
Station Details ID: 039083 Name: ROCKHAMPTON AERO Lat: -23.38 Lon: 150.48 Height: 10.4 m
Data from the previous 72 hours. | See also: Recent months at Rockhampton
Date/Time
EST
Temp
°C
App
Temp
°C
Dew
Point
Rel
Hum
%
Delta-T
°C
Wind Press
QNH
hPa
Press
MSL
hPa
Rain
since 9 am
mm
Dir
 
Spd
km/h
Gust
km/h
Spd
kts
Gust
kts
30/09:30am 19.2 15.5 9.3 52 5.2 SE 19 30 10 16 1026.3 1026.3 0.0
30/09:00am 17.7 14.4 9.4 58 4.3 SE 17 24 9 13 1026.1 1026.1 0.0
30/08:30am 17.0 13.5 8.8 58 4.2 ESE 17 28 9 15 1025.8 1025.8 0.0
30/08:00am 16.2 13.6 9.4 64 3.5 SE 13 19 7 10 1025.8 1025.8 0.0
30/07:00am 13.7 11.2 9.8 77 2.0 ESE 13 17 7 9 1025.6 1025.6 0.0
30/06:30am 13.5 11.0 9.8 78 1.9 SE 13 17 7 9 1025.2 1025.2 0.0
30/05:30am 14.2 11.8 10.1 76 2.1 ESE 13 20 7 11 1025.0 1025.0 0.0
30/05:00am 14.3 11.9 10.0 75 2.2 SE 13 17 7 9 1024.8 1024.8 0.0
30/04:30am 14.2 11.8 9.9 75 2.2 ESE 13 15 7 8 1024.7 1024.7 0.0
30/04:00am 13.9 11.9 10.0 77 2.0 ESE 11 15 6 8 1025.1 1025.1 0.0
30/03:30am 14.3 12.7 10.2 76 2.1 ESE 9 13 5 7 1025.5 1025.5 0.0
30/03:00am 14.4 12.8 10.2 76 2.2 SE 9 13 5 7 1025.6 1025.6 0.0
30/02:30am 14.8 13.3 10.4 75 2.3 SE 9 13 5 7 1025.7 1025.7 0.0
30/02:00am 15.2 13.2 10.2 72 2.6 SE 11 15 6 8 1025.9 1025.9 0.0
30/01:30am 15.2 12.8 10.2 72 2.6 SE 13 17 7 9 1026.1 1026.1 0.0
30/01:00am 15.2 12.8 10.2 72 2.6 SE 13 17 7 9 1026.3 1026.3 0.0
30/12:30am 15.1 12.4 10.3 73 2.5 SSE 15 19 8 10 1026.5 1026.5 0.0
30/12:00am 14.6 12.5 9.9 73 2.4 SSE 11 13 6 7 1026.9 1026.9 0.0
 
Date/Time
EST
Temp
°C
App
Temp
°C
Dew
Point
Rel
Hum
%
Delta-T
°C
Wind Press
QNH
hPa
Press
MSL
hPa
Rain
since 9 am
mm
Dir
 
Spd
km/h
Gust
km/h
Spd
kts
Gust
kts
29/11:30pm 15.3 12.9 9.9 70 2.8 SE 13 19 7 10 1026.9 1026.9 0.0
29/11:00pm 14.9 12.6 10.5 75 2.3 SSE 13 15 7 8 1026.7 1026.7 0.0
29/10:30pm 14.9 13.0 10.5 75 2.3 SSE 11 13 6 7 1026.8 1026.8 0.0
29/10:00pm 15.4 13.9 10.4 72 2.6 SSE 9 11 5 6 1026.8 1026.8 0.0
29/09:00pm 16.5 14.5 11.5 72 2.7 ESE 13 17 7 9 1027.1 1027.1 0.0
29/07:30pm 18.2 15.5 8.9 54 4.8 ESE 13 19 7 10 1026.6 1026.6 0.0
29/07:00pm 18.8 15.8 7.8 48 5.6 E 13 20 7 11 1026.2 1026.2 0.0
29/06:30pm 18.9 16.5 7.2 46 5.9 E 9 15 5 8 1025.9 1025.9 0.0
29/05:30pm 20.1 16.8 8.1 46 6.2 E 15 28 8 15 1025.5 1025.5 0.0
29/05:00pm 21.2 17.4 7.6 41 7.0 E 17 26 9 14 1025.1 1025.1 0.0
29/04:30pm 22.1 18.7 7.6 39 7.5 E 15 24 8 13 1024.8 1024.8 0.0
29/04:00pm 22.5 18.4 7.9 39 7.6 E 19 28 10 15 1024.7 1024.7 0.0
29/03:30pm 22.5 18.9 8.2 40 7.5 ESE 17 30 9 16 1024.7 1024.7 0.0
29/03:00pm 22.8 19.1 8.1 39 7.7 E 17 22 9 12 1024.7 1024.7 0.0
29/02:30pm 23.2 19.1 7.7 37 8.1 E 19 30 10 16 1025.0 1025.0 0.0
29/02:00pm 23.1 18.9 8.3 38 7.8 ESE 20 32 11 17 1025.3 1025.3 0.0
29/01:30pm 23.5 19.3 8.4 38 8.0 ESE 20 32 11 17 1025.7 1025.7 0.0
29/01:00pm 23.3 19.1 8.1 37 8.0 ESE 20 33 11 18 1026.0 1026.0 0.0
29/12:30pm 22.9 18.6 8.0 38 7.8 SE 20 32 11 17 1026.5 1026.5 0.0
29/12:00pm 22.4 18.1 7.8 39 7.6 ESE 20 30 11 16 1027.3 1027.3 0.0
29/11:30am 21.3 16.7 8.0 42 6.9 ESE 22 37 12 20 1027.6 1027.6 0.0
29/11:00am 20.5 15.4 7.6 43 6.6 ESE 24 35 13 19 1028.1 1028.1 0.0
29/10:30am 20.0 14.8 7.1 43 6.6 ESE 24 37 13 20 1028.4 1028.4 0.0
29/10:00am 19.4 15.0 6.5 43 6.4 ESE 19 32 10 17 1028.9 1028.9 0.0
29/09:30am 18.5 14.4 7.8 49 5.5 ESE 19 26 10 14 1029.1 1029.1 0.0
29/09:00am 17.6 14.1 8.8 56 4.5 SE 17 26 9 14 1029.4 1029.4 0.0
29/08:30am 16.6 13.7 9.7 63 3.6 SE 15 20 8 11 1029.2 1029.2 0.0
29/08:00am 15.3 12.8 9.7 69 2.9 SE 13 19 7 10 1029.1 1029.1 0.0
29/07:30am 14.4 11.8 9.5 72 2.5 ESE 13 17 7 9 1028.7 1028.7 0.0
29/07:00am 13.4 10.8 9.5 77 2.0 ESE 13 19 7 10 1028.3 1028.3 0.0
29/06:30am 13.0 10.4 9.4 79 1.8 ESE 13 17 7 9 1028.1 1028.1 0.0
29/06:00am 13.0 10.1 9.6 80 1.7 ESE 15 19 8 10 1027.9 1027.9 0.0
29/05:30am 13.5 10.6 9.6 77 2.0 ESE 15 20 8 11 1027.8 1027.8 0.0
29/05:00am 13.8 10.9 9.7 76 2.1 ESE 15 20 8 11 1027.5 1027.5 0.0
29/04:30am 13.8 10.9 9.7 76 2.1 ESE 15 20 8 11 1027.4 1027.4 0.0
29/04:00am 14.0 11.2 9.9 76 2.1 ESE 15 20 8 11 1027.4 1027.4 0.0
29/03:30am 13.9 11.5 10.2 78 1.9 ESE 13 20 7 11 1027.5 1027.5 0.0
29/03:00am 14.0 11.3 10.3 78 1.9 ESE 15 20 8 11 1027.5 1027.5 0.0
29/02:30am 14.1 11.8 10.6 79 1.8 ESE 13 17 7 9 1027.3 1027.3 0.0
29/02:00am 14.1 12.2 10.6 79 1.8 ESE 11 15 6 8 1027.4 1027.4 0.0
29/01:30am 14.6 12.5 11.0 79 1.9 SE 13 19 7 10 1027.5 1027.5 0.0
29/01:00am 14.8 12.7 11.2 79 1.9 SE 13 20 7 11 1027.6 1027.6 0.0
29/12:30am 15.3 13.3 11.4 77 2.1 SE 13 17 7 9 1027.7 1027.7 0.0
29/12:00am 15.9 13.5 11.4 74 2.4 SE 15 20 8 11 1027.6 1027.6 0.0
 
Date/Time
EST
Temp
°C
App
Temp
°C
Dew
Point
Rel
Hum
%
Delta-T
°C
Wind Press
QNH
hPa
Press
MSL
hPa
Rain
since 9 am
mm
Dir
 
Spd
km/h
Gust
km/h
Spd
kts
Gust
kts
28/11:30pm 16.2 13.9 11.8 75 2.4 SSE 15 19 8 10 1027.7 1027.7 0.0
28/11:00pm 16.6 14.8 12.0 74 2.5 SSE 13 17 7 9 1027.8 1027.8 0.0
28/10:30pm 16.9 15.6 12.5 75 2.4 SE 11 17 6 9 1028.0 1028.0 0.0
28/10:00pm 17.1 15.5 12.8 76 2.4 SSE 13 17 7 9 1028.0 1028.0 0.0
28/09:30pm 17.1 15.5 12.8 76 2.4 SE 13 17 7 9 1028.0 1028.0 0.0
28/09:00pm 17.2 15.9 12.5 74 2.6 SSE 11 15 6 8 1027.8 1027.8 0.0
28/08:30pm 17.2 15.4 12.1 72 2.8 SSE 13 17 7 9 1027.5 1027.5 0.0
28/08:00pm 17.4 15.9 11.9 70 3.0 SSE 11 15 6 8 1027.3 1027.3 0.0
28/07:30pm 18.1 16.8 11.3 64 3.7 S 9 13 5 7 1026.9 1026.9 0.0
28/07:00pm 19.2 17.9 11.1 59 4.4 SE 9 13 5 7 1026.7 1026.7 0.0
28/06:30pm 19.1 18.0 10.1 56 4.8 E 6 7 3 4 1026.4 1026.4 0.0
28/06:00pm 19.8 18.0 9.4 51 5.5 ENE 9 15 5 8 1025.9 1025.9 0.0
28/05:30pm 20.7 17.9 8.4 45 6.4 ENE 13 19 7 10 1025.5 1025.5 0.0
28/05:00pm 21.4 18.8 7.9 41 7.0 E 11 17 6 9 1025.2 1025.2 0.0
28/04:30pm 22.1 18.3 7.6 39 7.5 ESE 17 24 9 13 1024.7 1024.7 0.0
28/04:00pm 22.4 18.5 7.3 37 7.8 E 17 26 9 14 1024.6 1024.6 0.0
28/03:30pm 22.9 19.7 6.7 35 8.3 E 13 19 7 10 1024.5 1024.5 0.0
28/03:00pm 22.5 18.4 6.0 34 8.3 ESE 17 26 9 14 1024.6 1024.6 0.0
28/02:30pm 23.0 18.8 7.6 37 8.0 E 19 26 10 14 1024.7 1024.7 0.0
28/02:00pm 22.3 18.6 7.9 39 7.5 ESE 17 24 9 13 1024.9 1024.9 0.0
28/01:30pm 21.9 18.2 6.5 37 7.8 ESE 15 20 8 11 1025.2 1025.2 0.0
28/01:00pm 21.6 18.2 3.9 31 8.5 SSE 11 17 6 9 1025.8 1025.8 0.0
28/12:30pm 19.9 16.6 2.3 31 8.1 SSE 9 17 5 9 1026.4 1026.4 0.0
28/12:00pm 18.8 14.8 0.6 29 8.0 SSE 11 17 6 9 1027.1 1027.1 0.0
28/11:30am 18.1 14.6 1.1 32 7.6 S 9 15 5 8 1027.7 1027.7 0.0
28/11:00am 16.5 12.1 0.4 33 6.9 SSW 13 20 7 11 1028.2 1028.2 0.0
28/10:30am 15.6 10.1 0.6 36 6.5 SSW 19 22 10 12 1028.3 1028.3 0.0
28/10:00am 15.4 9.9 0.6 36 6.3 SW 19 24 10 13 1028.5 1028.5 0.0
28/09:30am 15.7 10.9 0.4 35 6.6 SSW 15 19 8 10 1028.4 1028.4 0.0
28/09:00am 14.8 9.4 1.0 39 5.9 SSW 19 22 10 12 1028.3 1028.3 0.0
28/08:30am 13.7 8.4 1.6 44 5.2 SSW 19 24 10 13 1028.0 1028.0 0.0
28/08:00am 13.4 8.5 2.1 46 4.9 SSW 17 24 9 13 1027.9 1027.9 0.0
28/07:30am 13.1 8.7 2.8 49 4.5 SSW 15 19 8 10 1027.9 1027.9 0.0
28/07:00am 12.9 8.5 2.9 50 4.4 SSW 15 20 8 11 1027.2 1027.2 0.0
28/06:30am 13.0 9.0 3.0 50 4.4 SSW 13 19 7 10 1026.7 1026.7 0.0
28/06:00am 13.1 9.6 3.4 51 4.3 SSW 11 15 6 8 1026.2 1026.2 0.0
28/05:30am 13.6 9.6 3.0 48 4.7 SSW 13 17 7 9 1026.0 1026.0 0.0
28/05:00am 13.8 9.1 3.3 49 4.7 SSW 17 24 9 13 1025.8 1025.8 0.0
28/04:30am 14.2 10.4 3.8 49 4.7 SSW 13 17 7 9 1025.4 1025.4 0.0
28/04:00am 14.4 10.7 4.4 51 4.6 SSW 13 17 7 9 1025.2 1025.2 0.0
28/03:30am 14.9 11.6 4.5 49 4.8 SSW 11 15 6 8 1025.0 1025.0 0.0
28/03:00am 15.5 10.4 4.2 47 5.2 SSW 20 24 11 13 1025.1 1025.1 0.0
28/02:30am 15.8 11.7 4.4 46 5.3 SSW 15 19 8 10 1025.1 1025.1 0.0
28/02:00am 16.0 12.1 5.2 48 5.1 SSW 15 19 8 10 1025.2 1025.2 0.0
28/01:30am 16.4 12.5 5.5 48 5.2 SSW 15 20 8 11 1025.3 1025.3 0.0
28/01:00am 16.7 13.3 5.7 48 5.3 SSW 13 15 7 8 1025.4 1025.4 0.0
28/12:30am 17.4 13.0 5.0 44 5.9 SSW 17 22 9 12 1025.4 1025.4 0.0
28/12:00am 17.4 14.2 5.3 45 5.8 SSW 11 13 6 7 1025.5 1025.5 0.0
 
Date/Time
EST
Temp
°C
App
Temp
°C
Dew
Point
Rel
Hum
%
Delta-T
°C
Wind Press
QNH
hPa
Press
MSL
hPa
Rain
since 9 am
mm
Dir
 
Spd
km/h
Gust
km/h
Spd
kts
Gust
kts
27/11:30pm 18.0 14.4 5.0 42 6.2 SSW 13 15 7 8 1025.5 1025.5 0.0
27/11:00pm 18.2 14.2 5.1 42 6.3 SSW 15 17 8 9 1025.4 1025.4 0.0
27/10:30pm 18.8 15.1 4.5 39 6.8 SSW 13 17 7 9 1025.4 1025.4 0.0
27/10:00pm 19.0 15.3 4.5 38 6.9 SSW 13 19 7 10 1025.5 1025.5 0.0
27/09:30pm 19.6 15.4 4.0 35 7.4 SSW 15 19 8 10 1025.3 1025.3 0.0
27/09:00pm 20.8 16.6 3.8 32 8.1 SSW 15 20 8 11 1025.2 1025.2 0.0
27/08:30pm 20.9 17.6 4.6 34 7.9 S 11 15 6 8 1025.0 1025.0 0.0
27/08:00pm 21.5 17.4 4.1 32 8.4 SSW 15 19 8 10 1024.4 1024.4 0.0
27/07:30pm 21.9 18.2 4.4 32 8.6 SSW 13 15 7 8 1024.0 1024.0 0.0
27/07:00pm 23.2 18.3 4.2 29 9.3 SSW 19 24 10 13 1023.5 1023.5 0.0
27/06:30pm 23.8 19.0 4.6 28 9.5 SSW 19 24 10 13 1022.7 1022.7 0.0
27/06:00pm 24.1 20.0 6.0 31 9.2 SSW 17 22 9 12 1022.1 1022.1 0.0
27/05:30pm 24.9 20.5 6.5 30 9.5 SSW 19 22 10 12 1021.6 1021.6 0.0
27/05:00pm 25.8 21.2 6.6 29 10.0 SW 20 26 11 14 1021.1 1021.1 0.0
27/04:30pm 26.7 22.2 6.9 28 10.4 SSW 20 26 11 14 1020.6 1020.6 0.0
27/04:00pm 27.2 23.5 7.8 29 10.4 SSW 17 22 9 12 1020.2 1020.2 0.0
27/03:30pm 27.2 23.8 9.1 32 9.9 SSW 17 22 9 12 1019.9 1019.9 0.0
27/03:00pm 27.5 23.7 9.1 31 10.1 SSW 19 26 10 14 1019.8 1019.8 0.0
27/02:30pm 27.8 24.7 8.8 30 10.4 SSW 15 24 8 13 1019.8 1019.8 0.0
27/02:00pm 27.8 26.0 10.8 34 9.6 SSW 11 17 6 9 1020.1 1020.1 0.0
27/01:30pm 27.2 26.5 11.9 38 8.8 SE 7 15 4 8 1020.4 1020.4 0.0
27/01:00pm 27.2 26.2 13.4 42 8.1 S 11 20 6 11 1020.9 1020.9 0.0
27/12:30pm 26.7 26.5 13.6 44 7.7 SSW 7 15 4 8 1021.6 1021.6 0.0
27/12:00pm 26.2 26.2 14.2 47 7.1 SE 7 19 4 10 1022.2 1022.2 0.0
27/11:30am 25.3 25.2 14.9 52 6.2 S 9 15 5 8 1022.7 1022.7 0.0
27/11:00am 24.7 24.5 15.6 57 5.5 SSE 11 19 6 10 1023.2 1023.2 0.0
27/10:30am 24.4 24.7 16.0 59 5.1 SSE 9 17 5 9 1023.8 1023.8 0.0

Other Formats:

Comma delimited format used in spreadsheet applications
http://www.bom.gov.au/fwo/IDQ60801/IDQ60801.94374.axf

JavaScript Object Notation format (JSON) in row-major order
http://www.bom.gov.au/fwo/IDQ60801/IDQ60801.94374.json